Flight Track Log - Related Links

Times and Time Zones

All times are in EDT time to prevent confusion due to time zone crossing. See the N860BA flight status page for this flight to view local times or setup timezone preferences in your user account.


Time Position Orientation Groundspeed Altitude Reporting Facility
EDT Latitude Longitude Course Direction KTS MPH feet Rate Location/Type
Wed 11:56:38 AM 42.4667 -71.3333 212° Southwest 175 201 1,000  Level KA90
Wed 11:58:50 AM 42.3522 -71.4289 212° Southwest 251 289 5,600 2,301 Climbing Boston Center
Wed 11:59:51 AM 42.3153 -71.4911 231° Southwest 239 275 8,400 3,074 Climbing Boston Center
Wed 12:00:51 PM 42.2722 -71.5844 238° Southwest 265 305 11,800 3,200 Climbing Boston Center
Wed 12:01:51 PM 42.2100 -71.6383 213° Southwest 265 305 14,800 2,949 Climbing Boston Center
Wed 12:02:49 PM 42.1436 -71.6953 212° Southwest 277 319 17,600 2,420 Climbing Boston Center
Wed 12:03:50 PM 42.0836 -71.7547 216° Southwest 287 330 19,600 2,132 Climbing Boston Center
Wed 12:04:50 PM 42.0172 -71.8169 215° Southwest 293 337 21,900 2,033 Climbing Boston Center
Wed 12:05:51 PM 41.9467 -71.8792 213° Southwest 298 343 23,700 1,831 Climbing Boston Center
Wed 12:06:48 PM 41.8700 -71.9522 215° Southwest 310 357 25,500 1,627 Climbing Boston Center
Wed 12:07:49 PM 41.7972 -72.0197 215° Southwest 316 364 26,900 1,475 Climbing Boston Center
Wed 12:08:50 PM 41.7206 -72.0953 216° Southwest 324 373 28,500 1,525 Climbing Boston Center
Wed 12:09:51 PM 41.6456 -72.1706 217° Southwest 340 391 30,000 1,373 Climbing Boston Center
Wed 12:10:48 PM 41.5667 -72.2458 216° Southwest 340 391 31,200 1,068 Climbing Boston Center
Wed 12:11:49 PM 41.4958 -72.3097 214° Southwest 340 391 32,100 934 Climbing Boston Center
Wed 12:12:50 PM 41.4167 -72.3903 217° Southwest 345 397 33,100 1,230 Climbing Boston Center
Wed 12:13:51 PM 41.3356 -72.4706 217° Southwest 358 412 34,600 1,537 Climbing Boston Center
Wed 12:14:51 PM 41.2436 -72.5614 217° Southwest 371 427 36,200 1,077 Climbing Boston Center
Wed 12:15:48 PM 41.1622 -72.6414 217° Southwest 371 427 36,700 454 Climbing Boston Center
Wed 12:16:50 PM 41.0789 -72.7236 217° Southwest 371 427 37,100 397 Climbing Boston Center
Wed 12:17:49 PM 40.9869 -72.8058 214° Southwest 388 447 37,500 400 Climbing Boston Center
Wed 12:18:50 PM 40.8947 -72.8958 216° Southwest 402 463 37,900 248 Climbing Boston Center
Wed 12:19:50 PM 40.8006 -72.9856 216° Southwest 414 476 38,000 198 Climbing Boston Center
Wed 12:20:51 PM 40.7044 -73.0725 214° Southwest 425 489 38,300 353 Climbing Boston Center
Wed 12:21:49 PM 40.6039 -73.1644 215° Southwest 432 497 38,700 403 Climbing Boston Center
Wed 12:22:50 PM 40.5072 -73.2589 217° Southwest 437 503 39,100 347 Climbing Boston Center
Wed 12:23:50 PM 40.4064 -73.3531 215° Southwest 437 503 39,400 289 Climbing Boston Center
Wed 12:25:57 PM 40.2086 -73.5461 217° Southwest 453 521 40,000 193 Climbing Washington Center
Wed 12:26:57 PM 40.1078 -73.6303 213° Southwest 441 507 40,000  Level Washington Center
Wed 12:27:58 PM 40.0072 -73.7225 215° Southwest 446 513 40,000  Level Washington Center
Wed 12:28:59 PM 39.9067 -73.8172 216° Southwest 453 521 40,000  Level Washington Center
Wed 12:30:00 PM 39.8078 -73.9089 215° Southwest 453 521 40,000  Level Washington Center
Wed 12:30:57 PM 39.7072 -74.0028 216° Southwest 453 521 40,000  Level Washington Center
Wed 12:31:57 PM 39.6061 -74.0914 214° Southwest 453 521 40,000  Level Washington Center
Wed 12:32:58 PM 39.5072 -74.1822 215° Southwest 448 516 40,000  Level Washington Center
Wed 12:33:58 PM 39.4061 -74.2728 215° Southwest 448 516 40,000  Level Washington Center
Wed 12:34:59 PM 39.3072 -74.3658 216° Southwest 448 516 40,000  Level Washington Center
Wed 12:35:59 PM 39.2058 -74.4533 214° Southwest 448 516 40,000  Level Washington Center
Wed 12:36:59 PM 39.1044 -74.5458 215° Southwest 448 516 40,000  Level Washington Center
Wed 12:37:57 PM 39.0033 -74.6353 215° Southwest 448 516 40,000  Level Washington Center
Wed 12:38:57 PM 38.9039 -74.7247 215° Southwest 448 516 40,000  Level Washington Center
Wed 12:39:58 PM 38.8022 -74.8164 215° Southwest 448 516 40,000  Level Washington Center
Wed 12:40:59 PM 38.7028 -74.9053 215° Southwest 448 516 40,000  Level Washington Center
Wed 12:41:57 PM 38.6031 -74.9886 213° Southwest 443 510 40,000  Level Washington Center
Wed 12:42:58 PM 38.5014 -75.0744 213° Southwest 443 510 40,000  Level Washington Center
Wed 12:43:59 PM 38.3997 -75.1653 215° Southwest 448 516 40,000  Level Washington Center
Wed 12:44:59 PM 38.2936 -75.2636 216° Southwest 448 516 40,000  Level Washington Center
Wed 12:45:57 PM 38.1917 -75.3514 214° Southwest 443 510 40,000  Level Washington Center
Wed 12:46:58 PM 38.0897 -75.4414 215° Southwest 449 517 40,000  Level Washington Center
Wed 12:47:58 PM 37.9875 -75.5258 213° Southwest 449 517 40,000  Level Washington Center
Wed 12:48:57 PM 37.8833 -75.6103 213° Southwest 449 517 40,000  Level Washington Center
Wed 12:49:57 PM 37.7769 -75.6917 211° Southwest 449 517 40,000  Level Washington Center
Wed 12:50:58 PM 37.6703 -75.7756 212° Southwest 449 517 40,000  Level Washington Center
Wed 12:51:59 PM 37.5744 -75.8511 212° Southwest 454 522 40,000  Level Washington Center
Wed 12:52:59 PM 37.4678 -75.9347 212° Southwest 454 522 40,000  Level Washington Center
Wed 12:53:57 PM 37.3631 -76.0178 212° Southwest 454 522 40,000  Level Washington Center
Wed 12:54:59 PM 37.2564 -76.1006 212° Southwest 454 522 40,000  Level Washington Center
Wed 12:55:57 PM 37.1436 -76.1781 209° Southwest 460 529 40,000  Level Washington Center
Wed 12:56:57 PM 37.0386 -76.2631 213° Southwest 460 529 40,000  Level Washington Center
Wed 12:57:57 PM 36.9297 -76.3453 211° Southwest 460 529 40,000  Level Washington Center
Wed 12:58:58 PM 36.8228 -76.4275 212° Southwest 455 524 40,000  Level Washington Center
Wed 12:59:58 PM 36.7139 -76.5092 211° Southwest 455 524 40,000  Level Washington Center
Wed 01:00:59 PM 36.5983 -76.5828 207° Southwest 455 524 40,000  Level Washington Center
Wed 01:01:59 PM 36.4831 -76.6486 205° Southwest 460 529 40,000  Level Washington Center
Wed 01:02:59 PM 36.3656 -76.7167 205° Southwest 460 529 40,000  Level Washington Center
Wed 01:03:57 PM 36.2503 -76.7844 205° Southwest 465 535 40,000  Level Washington Center
Wed 01:04:57 PM 36.1328 -76.8547 206° Southwest 465 535 40,000  Level Washington Center
Wed 01:05:58 PM 36.0131 -76.9194 204° Southwest 465 535 40,000  Level Washington Center
Wed 01:06:58 PM 35.8956 -76.9894 206° Southwest 465 535 40,000  Level Washington Center
Wed 01:07:59 PM 35.7717 -77.0461 200° South 465 535 40,000  Level Washington Center
Wed 01:08:59 PM 35.6417 -77.0947 197° South 472 543 40,000  Level Washington Center
Wed 01:10:00 PM 35.5056 -77.1458 197° South 472 543 40,000  Level Washington Center
Wed 01:10:57 PM 35.3775 -77.1969 198° South 477 549 40,000  Level Washington Center
Wed 01:11:59 PM 35.2494 -77.2453 197° South 483 556 40,000  Level Washington Center
Wed 01:12:59 PM 35.1236 -77.2936 197° South 483 556 40,000  Level Washington Center
Wed 01:13:57 PM 34.9958 -77.3414 197° South 483 556 40,000  Level Washington Center
Wed 01:14:58 PM 34.8656 -77.3919 198° South 488 562 40,000  Level Washington Center
Wed 01:15:58 PM 34.7544 -77.4375 199° South 483 556 40,000  Level Washington Center
Wed 01:16:58 PM 34.6264 -77.4875 198° South 483 556 40,000  Level Washington Center
Wed 01:17:59 PM 34.4983 -77.5325 196° South 483 556 40,000  Level Washington Center
Wed 01:18:59 PM 34.3703 -77.5822 198° South 483 556 40,000  Level Washington Center
Wed 01:20:41 PM 34.1431 -77.6614 196° South 471 542 40,000  Level Jacksonville Center
Wed 01:21:41 PM 34.0136 -77.7092 197° South 481 554 40,000  Level Jacksonville Center
Wed 01:22:41 PM 33.8842 -77.7569 197° South 487 560 40,000  Level Jacksonville Center
Wed 01:23:41 PM 33.7547 -77.8069 198° South 487 560 40,000  Level Jacksonville Center
Wed 01:24:41 PM 33.6128 -77.8575 197° South 487 560 40,000  Level Jacksonville Center
Wed 01:25:41 PM 33.4856 -77.9072 198° South 487 560 40,000  Level Jacksonville Center
Wed 01:26:41 PM 33.3558 -77.9542 197° South 487 560 40,000  Level Jacksonville Center
Wed 01:27:41 PM 33.2283 -78.0011 197° South 487 560 40,000  Level Jacksonville Center
Wed 01:28:41 PM 33.0967 -78.0478 197° South 487 560 40,000  Level Jacksonville Center
Wed 01:29:41 PM 32.9667 -78.0919 196° South 487 560 40,000  Level Jacksonville Center
Wed 01:30:41 PM 32.8392 -78.1408 198° South 487 560 40,000  Level Jacksonville Center
Wed 01:31:41 PM 32.7094 -78.1872 197° South 487 560 40,000  Level Jacksonville Center
Wed 01:32:41 PM 32.5797 -78.2333 197° South 487 560 40,000  Level Jacksonville Center
Wed 01:33:41 PM 32.4497 -78.2769 196° South 487 560 40,000  Level Jacksonville Center
Wed 01:34:41 PM 32.3222 -78.3300 199° South 487 560 40,000  Level Jacksonville Center
Wed 01:35:41 PM 32.1906 -78.3783 197° South 492 566 40,000  Level Jacksonville Center
Wed 01:36:41 PM 32.0628 -78.4239 197° South 492 566 40,000  Level Jacksonville Center
Wed 01:37:41 PM 31.9286 -78.4719 197° South 493 567 40,000  Level Jacksonville Center
Wed 01:38:41 PM 31.7986 -78.5150 196° South 493 567 40,000  Level Jacksonville Center
Wed 01:39:41 PM 31.6647 -78.5628 197° South 493 567 40,000  Level Jacksonville Center
Wed 01:40:41 PM 31.5367 -78.6075 197° South 493 567 40,000  Level Jacksonville Center
Wed 01:41:41 PM 31.4047 -78.6550 197° South 491 565 40,000  Level Jacksonville Center
Wed 01:42:41 PM 31.2706 -78.7050 198° South 498 573 40,000  Level Jacksonville Center
Wed 01:43:41 PM 31.1406 -78.7472 196° South 498 573 40,000  Level Jacksonville Center
Wed 01:45:49 PM 30.8750 -78.8386 196° South 491 565 40,000  Level Miami Center
Wed 01:46:49 PM 30.7411 -78.8844 196° South 501 577 40,000  Level Miami Center
Wed 01:47:49 PM 30.6094 -78.9206 193° South 496 571 40,000  Level Miami Center
Wed 01:48:49 PM 30.4756 -78.9564 193° South 496 571 40,000  Level Miami Center
Wed 01:49:49 PM 30.3394 -78.9944 194° South 496 571 40,000  Level Miami Center
Wed 01:50:49 PM 30.2014 -79.0278 192° South 496 571 40,000  Level Miami Center
Wed 01:51:49 PM 30.0631 -79.0633 193° South 501 577 40,000  Level Miami Center
Wed 01:52:49 PM 29.9167 -79.1081 195° South 501 577 40,000  Level Miami Center
Wed 01:53:49 PM 29.7806 -79.1436 193° South 501 577 40,000  Level Miami Center
Wed 01:54:49 PM 29.6506 -79.1839 195° South 503 579 40,000  Level Miami Center
Wed 01:55:49 PM 29.5122 -79.2167 192° South 498 573 40,000  Level Miami Center
Wed 01:56:49 PM 29.3742 -79.2469 191° South 504 580 40,000  Level Miami Center
Wed 01:57:49 PM 29.2400 -79.2844 194° South 504 580 40,000 -350 Level Miami Center
Wed 01:58:49 PM 29.1100 -79.3197 193° South 499 574 39,300 -750 Descending Miami Center
Wed 01:59:49 PM 28.9739 -79.3544 193° South 494 568 38,500 -1,100 Descending Miami Center
Wed 02:00:49 PM 28.8356 -79.3869 192° South 494 568 37,100 -1,400 Descending Miami Center
Wed 02:01:49 PM 28.6994 -79.4217 193° South 500 575 35,700 -1,400 Descending Miami Center
Wed 02:02:49 PM 28.5567 -79.4586 193° South 507 583 34,300 -1,400 Descending Miami Center
Wed 02:03:49 PM 28.4183 -79.4933 192° South 513 590 32,900 -1,400 Descending Miami Center
Wed 02:04:49 PM 28.2906 -79.5281 193° South 507 583 31,500 -1,400 Descending Miami Center
Wed 02:05:49 PM 28.1606 -79.5578 191° South 487 560 30,100 -1,400 Descending Miami Center
Wed 02:06:49 PM 28.0325 -79.5925 193° South 481 554 28,700 -1,400 Descending Miami Center
Wed 02:07:49 PM 27.9044 -79.6247 193° South 476 548 27,300 -1,400 Descending Miami Center
Wed 02:08:49 PM 27.7872 -79.6406 187° South 467 537 25,900 -1,350 Descending Miami Center
Wed 02:09:49 PM 27.6578 -79.6444 182° South 472 543 24,600 -1,450 Descending Miami Center
Wed 02:10:49 PM 27.5156 -79.6503 182° South 472 543 23,000 -1,500 Descending Miami Center
Wed 02:11:49 PM 27.3861 -79.6567 183° South 472 543 21,600 -1,350 Descending Miami Center
Wed 02:12:49 PM 27.2567 -79.6606 182° South 472 543 20,300 -1,350 Descending Miami Center
Wed 02:13:49 PM 27.1417 -79.6669 183° South 467 537 18,900 -1,550 Descending Miami Center
Wed 02:14:49 PM 27.0119 -79.6708 182° South 467 537 17,200 -1,800 Descending Miami Center
Wed 02:15:49 PM 26.8761 -79.6769 182° South 460 529 15,300 -1,965 Descending Miami Center
Wed 02:16:42 PM 26.7653 -79.6836 183° South 428 493 13,500 -1,800 Descending Miami Center
Wed 02:16:49 PM 26.7675 -79.6836 360° North 444 511 13,500 -2,036 Level Miami Center
Wed 02:17:38 PM 26.6747 -79.7186 199° South 360 414 11,600 -2,200 Descending Miami Center
Wed 02:17:49 PM 26.6600 -79.7253 202° Southwest 388 447 11,300 -1,967 Descending Miami Center
Wed 02:18:39 PM 26.5861 -79.7628 204° Southwest 336 387 9,600 -1,900 Descending Miami Center
Wed 02:18:49 PM 26.5819 -79.7650 205° Southwest 358 412 9,400 -1,433 Descending Miami Center
Wed 02:19:46 PM 26.4956 -79.8047 202° Southwest 291 335 8,000 -1,400 Descending Miami Center
Wed 02:19:49 PM 26.4956 -79.8047 202° Southwest 325 374 8,000  Level Miami Center
Wed 02:20:48 PM 26.4258 -79.8403 205° Southwest 272 313 8,000  Level Miami Center
Wed 02:20:49 PM 26.4344 -79.8333 36° Northeast 285 328 8,000  Level Miami Center
Wed 02:21:49 PM 26.3583 -79.8803 209° Southwest 280 322 8,000  Level Miami Center
Wed 02:21:55 PM 26.3497 -79.8892 223° Southwest 283 326 8,000 -700 Level Miami Center
Wed 02:22:49 PM 26.3050 -79.9322 221° Southwest 286 329 7,300 -873 Descending Miami Center
Wed 02:22:50 PM 26.2964 -79.9411 223° Southwest 288 331 7,200 -1,368 Descending Miami Center
Wed 02:23:46 PM 26.2389 -79.9931 219° Southwest 283 326 6,000 -1,220 Descending Miami Center
Wed 02:23:49 PM 26.2475 -79.9886 25° Northeast 291 335 6,000  Level Miami Center
Wed 02:24:49 PM 26.1961 -80.0381 221° Southwest 277 319 6,000 -50 Level Miami Center
Wed 02:25:49 PM 26.1633 -80.1044 241° Southwest 253 291 5,900 -185 Descending Miami Center
Wed 02:25:54 PM 26.1567 -80.1203 245° Southwest 250 288 5,800 -727 Descending Miami Center
Wed 02:26:55 PM 26.1447 -80.1872 259° West 202 232 5,100 -931 Descending Miami Center
Wed 02:27:50 PM 26.1453 -80.2542 271° West 233 268 4,000 -828 Descending Miami Center
Wed 02:28:51 PM 26.1397 -80.3211 265° West 226 260 3,500 -1,026 Descending Miami Center
Wed 02:29:47 PM 26.0878 -80.3106 170° South 241 277 2,000 -872 Descending Miami Center
Wed 02:30:48 PM 26.0700 -80.2567 110° East 167 192 1,800 -516 Descending Miami Center
Wed 02:31:55 PM 26.0756 -80.2036 83° East 129 148 900 -806 Descending Miami Center
Wed 02:33:00 PM 26.0667 -80.1500 103° East  Level FlightAware Approximate
Wed 02:40:00 PM 26.0726 -80.1527 103° East  Level Estimated
Wed 02:41:00 PM 26.0667 -80.1500 103° East  Level FlightAware Approximate

Login

Don't have an account? Register now (free) for customized features, flight alerts, and more!